sensor_id;sensor_type;location;lat;lon;timestamp;noise_LAeq;noise_LA_min;noise_LA_max;noise_LA01;noise_LA95
49215;Laerm;45943;53.148;8.204;2023-07-31T00:00:31;41.22;37.51;46.23;;
49215;Laerm;45943;53.148;8.204;2023-07-31T00:02:57;41.86;38.12;46.32;;
49215;Laerm;45943;53.148;8.204;2023-07-31T00:05:23;43.08;39.27;46.51;;
49215;Laerm;45943;53.148;8.204;2023-07-31T00:07:49;41.89;38.48;44.67;;
49215;Laerm;45943;53.148;8.204;2023-07-31T00:10:15;42.15;38.48;46.49;;
49215;Laerm;45943;53.148;8.204;2023-07-31T00:12:42;42.11;38.30;46.26;;
49215;Laerm;45943;53.148;8.204;2023-07-31T00:15:09;41.95;37.51;49.48;;
49215;Laerm;45943;53.148;8.204;2023-07-31T00:17:36;43.09;38.30;52.88;;
49215;Laerm;45943;53.148;8.204;2023-07-31T00:20:02;49.93;40.18;72.07;;
49215;Laerm;45943;53.148;8.204;2023-07-31T00:22:28;42.66;38.97;51.14;;
49215;Laerm;45943;53.148;8.204;2023-07-31T00:24:56;46.03;39.41;60.86;;
49215;Laerm;45943;53.148;8.204;2023-07-31T00:27:22;42.81;37.51;50.62;;
49215;Laerm;45943;53.148;8.204;2023-07-31T00:29:48;42.03;38.30;45.96;;
49215;Laerm;45943;53.148;8.204;2023-07-31T00:32:14;42.47;37.51;48.21;;
49215;Laerm;45943;53.148;8.204;2023-07-31T00:34:40;42.30;38.81;45.83;;
49215;Laerm;45943;53.148;8.204;2023-07-31T00:37:06;42.46;38.81;45.50;;
49215;Laerm;45943;53.148;8.204;2023-07-31T00:39:33;43.00;39.27;49.45;;
49215;Laerm;45943;53.148;8.204;2023-07-31T00:42:00;49.92;38.48;60.53;;
49215;Laerm;45943;53.148;8.204;2023-07-31T00:44:26;42.56;39.27;45.96;;
49215;Laerm;45943;53.148;8.204;2023-07-31T00:46:53;41.25;37.72;45.22;;
49215;Laerm;45943;53.148;8.204;2023-07-31T00:49:20;45.58;37.05;56.78;;
49215;Laerm;45943;53.148;8.204;2023-07-31T00:51:46;41.52;36.80;45.43;;
49215;Laerm;45943;53.148;8.204;2023-07-31T00:54:12;40.51;36.80;43.79;;
49215;Laerm;45943;53.148;8.204;2023-07-31T00:56:40;42.32;37.92;46.05;;
49215;Laerm;45943;53.148;8.204;2023-07-31T00:59:06;66.07;39.12;78.12;;
49215;Laerm;45943;53.148;8.204;2023-07-31T01:01:32;41.94;38.12;45.43;;
49215;Laerm;45943;53.148;8.204;2023-07-31T01:03:58;42.13;37.92;45.61;;
49215;Laerm;45943;53.148;8.204;2023-07-31T01:09:03;40.80;36.80;44.71;;
49215;Laerm;45943;53.148;8.204;2023-07-31T01:11:31;40.98;37.72;47.36;;
49215;Laerm;45943;53.148;8.204;2023-07-31T01:13:59;41.67;37.05;51.85;;
49215;Laerm;45943;53.148;8.204;2023-07-31T01:16:26;41.56;38.48;46.95;;
49215;Laerm;45943;53.148;8.204;2023-07-31T01:18:52;41.76;38.81;46.93;;
49215;Laerm;45943;53.148;8.204;2023-07-31T01:26:55;42.18;37.72;47.47;;
49215;Laerm;45943;53.148;8.204;2023-07-31T01:32:01;47.07;42.49;55.60;;
49215;Laerm;45943;53.148;8.204;2023-07-31T01:34:29;46.32;42.89;58.46;;
49215;Laerm;45943;53.148;8.204;2023-07-31T01:36:56;44.93;41.13;60.44;;
49215;Laerm;45943;53.148;8.204;2023-07-31T01:39:24;46.67;40.83;55.36;;
49215;Laerm;45943;53.148;8.204;2023-07-31T01:41:50;47.62;43.89;57.64;;
49215;Laerm;45943;53.148;8.204;2023-07-31T01:44:16;45.58;42.42;55.70;;
49215;Laerm;45943;53.148;8.204;2023-07-31T01:46:42;50.51;42.76;71.53;;
49215;Laerm;45943;53.148;8.204;2023-07-31T01:49:08;50.61;44.87;64.29;;
49215;Laerm;45943;53.148;8.204;2023-07-31T01:51:34;48.88;43.48;62.90;;
49215;Laerm;45943;53.148;8.204;2023-07-31T01:54:00;51.01;43.07;70.27;;
49215;Laerm;45943;53.148;8.204;2023-07-31T01:56:27;47.58;42.89;69.19;;
49215;Laerm;45943;53.148;8.204;2023-07-31T01:58:53;50.54;44.83;66.05;;
49215;Laerm;45943;53.148;8.204;2023-07-31T02:01:19;56.31;45.80;76.45;;
49215;Laerm;45943;53.148;8.204;2023-07-31T02:03:45;51.45;44.67;72.18;;
49215;Laerm;45943;53.148;8.204;2023-07-31T02:06:11;52.57;43.53;71.91;;
49215;Laerm;45943;53.148;8.204;2023-07-31T02:08:37;48.09;43.48;71.04;;
49215;Laerm;45943;53.148;8.204;2023-07-31T02:11:04;47.04;42.21;72.42;;
49215;Laerm;45943;53.148;8.204;2023-07-31T02:13:30;47.25;43.31;63.39;;
49215;Laerm;45943;53.148;8.204;2023-07-31T02:15:55;65.14;42.49;77.31;;
49215;Laerm;45943;53.148;8.204;2023-07-31T02:18:21;47.30;42.28;73.02;;
49215;Laerm;45943;53.148;8.204;2023-07-31T02:20:51;45.52;42.13;69.63;;
49215;Laerm;45943;53.148;8.204;2023-07-31T02:23:18;47.92;43.34;71.91;;
49215;Laerm;45943;53.148;8.204;2023-07-31T02:25:44;46.05;42.35;62.25;;
49215;Laerm;45943;53.148;8.204;2023-07-31T02:28:11;44.83;42.13;61.01;;
49215;Laerm;45943;53.148;8.204;2023-07-31T02:30:37;46.74;42.28;62.47;;
49215;Laerm;45943;53.148;8.204;2023-07-31T02:33:03;46.70;43.07;70.65;;
49215;Laerm;45943;53.148;8.204;2023-07-31T02:35:29;51.13;43.31;72.20;;
49215;Laerm;45943;53.148;8.204;2023-07-31T02:37:55;48.54;43.69;70.37;;
49215;Laerm;45943;53.148;8.204;2023-07-31T02:40:21;48.91;44.28;70.59;;
49215;Laerm;45943;53.148;8.204;2023-07-31T02:42:48;51.25;45.77;72.01;;
49215;Laerm;45943;53.148;8.204;2023-07-31T02:45:14;49.72;45.11;62.17;;
49215;Laerm;45943;53.148;8.204;2023-07-31T02:47:39;47.61;43.69;61.55;;
49215;Laerm;45943;53.148;8.204;2023-07-31T02:50:06;65.04;45.57;78.70;;
49215;Laerm;45943;53.148;8.204;2023-07-31T02:52:32;48.81;43.07;73.48;;
49215;Laerm;45943;53.148;8.204;2023-07-31T02:54:58;46.07;42.56;62.85;;
49215;Laerm;45943;53.148;8.204;2023-07-31T02:57:24;46.75;43.42;66.41;;
49215;Laerm;45943;53.148;8.204;2023-07-31T02:59:50;46.13;42.76;70.76;;
49215;Laerm;45943;53.148;8.204;2023-07-31T03:02:16;47.50;42.13;71.70;;
49215;Laerm;45943;53.148;8.204;2023-07-31T03:04:42;52.86;42.28;72.08;;
49215;Laerm;45943;53.148;8.204;2023-07-31T03:07:08;51.29;45.07;70.08;;
49215;Laerm;45943;53.148;8.204;2023-07-31T03:09:34;53.19;45.36;73.20;;
49215;Laerm;45943;53.148;8.204;2023-07-31T03:12:00;51.56;46.26;71.67;;
49215;Laerm;45943;53.148;8.204;2023-07-31T03:14:26;54.79;46.17;73.81;;
49215;Laerm;45943;53.148;8.204;2023-07-31T03:16:53;48.01;42.82;73.05;;
49215;Laerm;45943;53.148;8.204;2023-07-31T03:19:19;46.36;42.95;65.78;;
49215;Laerm;45943;53.148;8.204;2023-07-31T03:21:45;55.93;42.82;72.08;;
49215;Laerm;45943;53.148;8.204;2023-07-31T03:24:11;46.59;42.28;70.83;;
49215;Laerm;45943;53.148;8.204;2023-07-31T03:26:38;45.79;42.42;69.42;;
49215;Laerm;45943;53.148;8.204;2023-07-31T03:29:07;47.02;42.89;61.67;;
49215;Laerm;45943;53.148;8.204;2023-07-31T03:31:33;51.59;44.83;69.66;;
49215;Laerm;45943;53.148;8.204;2023-07-31T03:33:59;53.35;44.14;73.03;;
49215;Laerm;45943;53.148;8.204;2023-07-31T03:36:25;53.41;44.87;72.46;;
49215;Laerm;45943;53.148;8.204;2023-07-31T03:38:52;51.91;46.20;71.14;;
49215;Laerm;45943;53.148;8.204;2023-07-31T03:41:18;57.06;46.23;71.56;;
49215;Laerm;45943;53.148;8.204;2023-07-31T03:43:46;48.68;44.99;71.15;;
49215;Laerm;45943;53.148;8.204;2023-07-31T03:46:12;47.52;44.02;63.92;;
49215;Laerm;45943;53.148;8.204;2023-07-31T03:48:38;53.54;44.18;72.50;;
49215;Laerm;45943;53.148;8.204;2023-07-31T03:51:04;51.15;44.18;69.61;;
49215;Laerm;45943;53.148;8.204;2023-07-31T03:53:30;47.98;43.99;69.00;;
49215;Laerm;45943;53.148;8.204;2023-07-31T03:55:56;55.43;43.64;73.06;;
49215;Laerm;45943;53.148;8.204;2023-07-31T03:58:22;48.51;44.14;72.41;;
49215;Laerm;45943;53.148;8.204;2023-07-31T04:00:48;49.95;43.53;71.55;;
49215;Laerm;45943;53.148;8.204;2023-07-31T04:03:14;47.98;43.31;72.73;;
49215;Laerm;45943;53.148;8.204;2023-07-31T04:05:40;48.39;44.23;71.80;;
49215;Laerm;45943;53.148;8.204;2023-07-31T04:08:06;48.18;44.28;70.73;;
49215;Laerm;45943;53.148;8.204;2023-07-31T04:10:32;53.09;43.84;73.60;;
49215;Laerm;45943;53.148;8.204;2023-07-31T04:13:00;48.81;43.89;73.37;;
49215;Laerm;45943;53.148;8.204;2023-07-31T04:15:28;51.00;43.48;74.28;;
49215;Laerm;45943;53.148;8.204;2023-07-31T04:17:54;51.49;44.63;69.50;;
49215;Laerm;45943;53.148;8.204;2023-07-31T04:20:20;56.88;45.18;74.31;;
49215;Laerm;45943;53.148;8.204;2023-07-31T04:22:46;48.31;43.99;73.55;;
49215;Laerm;45943;53.148;8.204;2023-07-31T04:25:12;50.20;43.13;69.41;;
49215;Laerm;45943;53.148;8.204;2023-07-31T04:27:39;52.34;42.95;70.73;;
49215;Laerm;45943;53.148;8.204;2023-07-31T04:30:06;53.39;43.58;76.74;;
49215;Laerm;45943;53.148;8.204;2023-07-31T04:32:32;46.87;43.01;72.97;;
49215;Laerm;45943;53.148;8.204;2023-07-31T04:34:58;45.27;42.63;60.96;;
49215;Laerm;45943;53.148;8.204;2023-07-31T04:37:24;54.73;42.42;72.32;;
49215;Laerm;45943;53.148;8.204;2023-07-31T04:39:50;56.51;42.82;73.08;;
49215;Laerm;45943;53.148;8.204;2023-07-31T04:42:16;52.08;42.76;68.19;;
49215;Laerm;45943;53.148;8.204;2023-07-31T04:44:42;57.67;42.82;73.47;;
49215;Laerm;45943;53.148;8.204;2023-07-31T04:47:08;47.73;42.76;63.85;;
49215;Laerm;45943;53.148;8.204;2023-07-31T04:49:34;54.38;43.64;71.74;;
49215;Laerm;45943;53.148;8.204;2023-07-31T04:52:00;56.78;43.07;72.65;;
49215;Laerm;45943;53.148;8.204;2023-07-31T04:54:26;50.39;42.28;65.80;;
49215;Laerm;45943;53.148;8.204;2023-07-31T04:56:52;46.27;42.28;71.93;;
49215;Laerm;45943;53.148;8.204;2023-07-31T04:59:18;51.27;42.28;66.10;;
49215;Laerm;45943;53.148;8.204;2023-07-31T05:01:44;56.24;42.42;73.04;;
49215;Laerm;45943;53.148;8.204;2023-07-31T05:04:14;53.94;41.66;70.40;;
49215;Laerm;45943;53.148;8.204;2023-07-31T05:06:40;55.44;42.95;71.41;;
49215;Laerm;45943;53.148;8.204;2023-07-31T05:09:06;54.88;42.42;72.80;;
49215;Laerm;45943;53.148;8.204;2023-07-31T05:11:32;54.52;43.07;70.49;;
49215;Laerm;45943;53.148;8.204;2023-07-31T05:13:58;52.42;42.69;72.12;;
49215;Laerm;45943;53.148;8.204;2023-07-31T05:16:24;50.23;43.19;72.36;;
49215;Laerm;45943;53.148;8.204;2023-07-31T05:18:50;52.99;43.13;72.79;;
49215;Laerm;45943;53.148;8.204;2023-07-31T05:21:16;56.24;43.13;71.02;;
49215;Laerm;45943;53.148;8.204;2023-07-31T05:23:42;53.11;42.76;73.10;;
49215;Laerm;45943;53.148;8.204;2023-07-31T05:26:08;53.89;42.82;71.90;;
49215;Laerm;45943;53.148;8.204;2023-07-31T05:28:37;55.26;43.64;70.63;;
49215;Laerm;45943;53.148;8.204;2023-07-31T05:31:04;54.30;42.95;70.47;;
49215;Laerm;45943;53.148;8.204;2023-07-31T05:33:31;56.22;43.31;73.24;;
49215;Laerm;45943;53.148;8.204;2023-07-31T05:35:57;52.97;42.63;68.99;;
49215;Laerm;45943;53.148;8.204;2023-07-31T05:38:23;53.31;42.89;69.95;;
49215;Laerm;45943;53.148;8.204;2023-07-31T05:40:49;56.52;45.57;70.42;;
49215;Laerm;45943;53.148;8.204;2023-07-31T05:43:15;57.42;45.14;72.27;;
49215;Laerm;45943;53.148;8.204;2023-07-31T05:45:44;54.16;42.63;72.81;;
49215;Laerm;45943;53.148;8.204;2023-07-31T05:48:10;52.94;43.01;72.78;;
49215;Laerm;45943;53.148;8.204;2023-07-31T05:50:36;55.21;43.31;72.61;;
49215;Laerm;45943;53.148;8.204;2023-07-31T05:53:04;53.70;44.18;72.70;;
49215;Laerm;45943;53.148;8.204;2023-07-31T05:55:30;57.34;47.36;73.09;;
49215;Laerm;45943;53.148;8.204;2023-07-31T05:57:56;66.81;47.40;77.07;;
49215;Laerm;45943;53.148;8.204;2023-07-31T06:00:22;59.64;47.47;74.81;;
49215;Laerm;45943;53.148;8.204;2023-07-31T06:02:48;60.43;47.17;71.71;;
49215;Laerm;45943;53.148;8.204;2023-07-31T06:05:14;60.51;52.00;72.09;;
49215;Laerm;45943;53.148;8.204;2023-07-31T06:07:40;58.49;52.00;72.34;;
49215;Laerm;45943;53.148;8.204;2023-07-31T06:10:07;60.06;51.17;74.59;;
49215;Laerm;45943;53.148;8.204;2023-07-31T06:12:34;59.09;52.35;72.68;;
49215;Laerm;45943;53.148;8.204;2023-07-31T06:15:02;59.54;44.67;75.50;;
49215;Laerm;45943;53.148;8.204;2023-07-31T06:17:28;60.49;44.09;76.19;;
49215;Laerm;45943;53.148;8.204;2023-07-31T06:19:56;54.81;45.25;77.91;;
49215;Laerm;45943;53.148;8.204;2023-07-31T06:22:22;54.96;44.18;72.22;;
49215;Laerm;45943;53.148;8.204;2023-07-31T06:24:48;57.09;43.48;73.28;;
49215;Laerm;45943;53.148;8.204;2023-07-31T06:27:14;52.56;43.25;71.74;;
49215;Laerm;45943;53.148;8.204;2023-07-31T06:29:40;54.16;43.84;72.98;;
49215;Laerm;45943;53.148;8.204;2023-07-31T06:32:07;54.52;46.23;73.92;;
49215;Laerm;45943;53.148;8.204;2023-07-31T06:34:33;57.80;49.08;72.58;;
49215;Laerm;45943;53.148;8.204;2023-07-31T06:36:59;56.88;49.24;73.86;;
49215;Laerm;45943;53.148;8.204;2023-07-31T06:39:25;53.67;47.10;73.61;;
49215;Laerm;45943;53.148;8.204;2023-07-31T06:41:51;60.49;47.38;76.11;;
49215;Laerm;45943;53.148;8.204;2023-07-31T06:44:17;58.74;53.26;74.37;;
49215;Laerm;45943;53.148;8.204;2023-07-31T06:46:43;61.60;53.76;74.00;;
49215;Laerm;45943;53.148;8.204;2023-07-31T06:49:09;60.36;50.77;77.44;;
49215;Laerm;45943;53.148;8.204;2023-07-31T06:51:35;58.12;49.33;72.46;;
49215;Laerm;45943;53.148;8.204;2023-07-31T06:54:02;60.76;48.97;72.61;;
49215;Laerm;45943;53.148;8.204;2023-07-31T06:56:28;60.24;48.25;76.96;;
49215;Laerm;45943;53.148;8.204;2023-07-31T06:58:56;56.09;47.66;73.86;;
49215;Laerm;45943;53.148;8.204;2023-07-31T07:01:21;57.24;47.76;72.87;;
49215;Laerm;45943;53.148;8.204;2023-07-31T07:03:47;59.24;49.47;74.25;;
49215;Laerm;45943;53.148;8.204;2023-07-31T07:06:17;56.44;50.98;74.46;;
49215;Laerm;45943;53.148;8.204;2023-07-31T07:08:43;59.94;52.23;74.92;;
49215;Laerm;45943;53.148;8.204;2023-07-31T07:11:09;61.13;54.42;74.75;;
49215;Laerm;45943;53.148;8.204;2023-07-31T07:13:35;59.76;53.21;74.24;;
49215;Laerm;45943;53.148;8.204;2023-07-31T07:16:01;60.72;53.51;75.21;;
49215;Laerm;45943;53.148;8.204;2023-07-31T07:18:27;60.58;53.08;79.12;;
49215;Laerm;45943;53.148;8.204;2023-07-31T07:20:54;59.41;48.55;74.15;;
49215;Laerm;45943;53.148;8.204;2023-07-31T07:23:20;53.63;46.75;72.46;;
49215;Laerm;45943;53.148;8.204;2023-07-31T07:25:47;55.13;45.57;71.55;;
49215;Laerm;45943;53.148;8.204;2023-07-31T07:28:13;52.90;44.79;68.89;;
49215;Laerm;45943;53.148;8.204;2023-07-31T07:30:40;53.85;45.25;68.60;;
49215;Laerm;45943;53.148;8.204;2023-07-31T07:33:06;58.85;45.96;71.87;;
49215;Laerm;45943;53.148;8.204;2023-07-31T07:35:36;55.35;45.22;70.97;;
49215;Laerm;45943;53.148;8.204;2023-07-31T07:38:02;56.51;44.63;70.95;;
49215;Laerm;45943;53.148;8.204;2023-07-31T07:40:29;57.02;44.54;72.61;;
49215;Laerm;45943;53.148;8.204;2023-07-31T07:42:55;53.45;44.50;68.70;;
49215;Laerm;45943;53.148;8.204;2023-07-31T07:45:21;59.72;45.03;69.27;;
49215;Laerm;45943;53.148;8.204;2023-07-31T07:47:47;55.32;44.67;69.86;;
49215;Laerm;45943;53.148;8.204;2023-07-31T07:50:13;56.91;44.28;70.10;;
49215;Laerm;45943;53.148;8.204;2023-07-31T07:52:39;54.15;44.54;68.75;;
49215;Laerm;45943;53.148;8.204;2023-07-31T07:55:05;54.87;44.18;69.45;;
49215;Laerm;45943;53.148;8.204;2023-07-31T07:57:31;53.42;44.09;66.82;;
49215;Laerm;45943;53.148;8.204;2023-07-31T07:59:57;55.94;45.94;69.99;;
49215;Laerm;45943;53.148;8.204;2023-07-31T08:02:23;47.93;44.18;59.91;;
49215;Laerm;45943;53.148;8.204;2023-07-31T08:04:49;53.90;44.59;71.67;;
49215;Laerm;45943;53.148;8.204;2023-07-31T08:07:15;53.35;44.46;71.60;;
49215;Laerm;45943;53.148;8.204;2023-07-31T08:09:41;53.61;44.63;67.32;;
49215;Laerm;45943;53.148;8.204;2023-07-31T08:12:07;53.28;43.94;66.54;;
49215;Laerm;45943;53.148;8.204;2023-07-31T08:14:33;55.43;44.59;71.29;;
49215;Laerm;45943;53.148;8.204;2023-07-31T08:17:00;58.69;43.58;74.53;;
49215;Laerm;45943;53.148;8.204;2023-07-31T08:19:26;53.02;43.58;66.32;;
49215;Laerm;45943;53.148;8.204;2023-07-31T08:21:52;59.70;43.74;78.72;;
49215;Laerm;45943;53.148;8.204;2023-07-31T08:24:18;52.71;43.79;69.71;;
49215;Laerm;45943;53.148;8.204;2023-07-31T08:26:52;53.60;44.63;67.70;;
49215;Laerm;45943;53.148;8.204;2023-07-31T08:29:20;54.34;44.67;67.86;;
49215;Laerm;45943;53.148;8.204;2023-07-31T08:31:46;54.35;44.46;68.27;;
49215;Laerm;45943;53.148;8.204;2023-07-31T08:34:12;54.15;44.57;69.21;;
49215;Laerm;45943;53.148;8.204;2023-07-31T08:36:38;53.32;44.87;68.65;;
49215;Laerm;45943;53.148;8.204;2023-07-31T08:39:04;57.76;44.37;75.91;;
49215;Laerm;45943;53.148;8.204;2023-07-31T08:41:30;51.77;44.09;70.53;;
49215;Laerm;45943;53.148;8.204;2023-07-31T08:43:56;54.89;44.32;68.75;;
49215;Laerm;45943;53.148;8.204;2023-07-31T08:46:24;53.85;44.32;72.00;;
49215;Laerm;45943;53.148;8.204;2023-07-31T08:48:51;55.94;44.50;68.92;;
49215;Laerm;45943;53.148;8.204;2023-07-31T08:51:19;56.03;44.95;67.85;;
49215;Laerm;45943;53.148;8.204;2023-07-31T08:53:45;52.96;44.59;70.38;;
49215;Laerm;45943;53.148;8.204;2023-07-31T08:56:12;54.44;45.14;66.20;;
49215;Laerm;45943;53.148;8.204;2023-07-31T08:58:39;55.86;44.75;70.68;;
49215;Laerm;45943;53.148;8.204;2023-07-31T09:01:07;52.83;44.91;66.47;;
49215;Laerm;45943;53.148;8.204;2023-07-31T09:03:34;55.86;47.38;72.57;;
49215;Laerm;45943;53.148;8.204;2023-07-31T09:06:03;54.15;45.64;70.21;;
49215;Laerm;45943;53.148;8.204;2023-07-31T09:08:32;55.90;46.49;71.64;;
49215;Laerm;45943;53.148;8.204;2023-07-31T09:11:02;56.66;46.90;73.00;;
49215;Laerm;45943;53.148;8.204;2023-07-31T09:13:32;54.27;44.91;68.37;;
49215;Laerm;45943;53.148;8.204;2023-07-31T09:15:59;56.02;45.29;68.98;;
49215;Laerm;45943;53.148;8.204;2023-07-31T09:18:25;59.22;45.90;75.95;;
49215;Laerm;45943;53.148;8.204;2023-07-31T09:21:02;57.56;45.90;69.66;;
49215;Laerm;45943;53.148;8.204;2023-07-31T09:23:43;58.41;46.32;70.10;;
49215;Laerm;45943;53.148;8.204;2023-07-31T09:26:10;55.99;44.95;67.52;;
49215;Laerm;45943;53.148;8.204;2023-07-31T09:28:36;54.93;44.83;69.63;;
49215;Laerm;45943;53.148;8.204;2023-07-31T09:31:02;63.12;44.75;73.49;;
49215;Laerm;45943;53.148;8.204;2023-07-31T09:33:28;55.81;44.32;68.50;;
49215;Laerm;45943;53.148;8.204;2023-07-31T09:35:58;54.87;44.83;67.75;;
49215;Laerm;45943;53.148;8.204;2023-07-31T09:38:26;56.16;45.57;70.68;;
49215;Laerm;45943;53.148;8.204;2023-07-31T09:40:52;58.32;45.07;71.90;;
49215;Laerm;45943;53.148;8.204;2023-07-31T09:43:19;56.45;45.18;77.84;;
49215;Laerm;45943;53.148;8.204;2023-07-31T09:45:46;56.27;44.83;69.61;;
49215;Laerm;45943;53.148;8.204;2023-07-31T09:48:16;55.53;44.71;67.62;;
49215;Laerm;45943;53.148;8.204;2023-07-31T09:50:44;61.15;45.40;84.47;;
49215;Laerm;45943;53.148;8.204;2023-07-31T09:53:10;55.05;44.41;68.37;;
49215;Laerm;45943;53.148;8.204;2023-07-31T09:55:37;54.85;44.04;70.17;;
49215;Laerm;45943;53.148;8.204;2023-07-31T09:58:09;51.70;43.74;66.89;;
49215;Laerm;45943;53.148;8.204;2023-07-31T10:00:36;54.82;44.04;70.04;;
49215;Laerm;45943;53.148;8.204;2023-07-31T10:03:07;54.16;44.04;71.09;;
49215;Laerm;45943;53.148;8.204;2023-07-31T10:05:40;52.45;44.59;66.26;;
49215;Laerm;45943;53.148;8.204;2023-07-31T10:08:09;51.89;44.04;68.60;;
49215;Laerm;45943;53.148;8.204;2023-07-31T10:10:42;51.63;44.28;66.32;;
49215;Laerm;45943;53.148;8.204;2023-07-31T10:13:09;52.74;45.07;70.52;;
49215;Laerm;45943;53.148;8.204;2023-07-31T10:15:36;53.43;44.54;69.36;;
49215;Laerm;45943;53.148;8.204;2023-07-31T10:18:05;55.18;44.83;72.48;;
49215;Laerm;45943;53.148;8.204;2023-07-31T10:20:32;55.37;45.43;71.33;;
49215;Laerm;45943;53.148;8.204;2023-07-31T10:22:58;59.79;45.93;75.24;;
49215;Laerm;45943;53.148;8.204;2023-07-31T10:25:26;57.44;45.61;76.82;;
49215;Laerm;45943;53.148;8.204;2023-07-31T10:27:54;53.83;45.33;70.21;;
49215;Laerm;45943;53.148;8.204;2023-07-31T10:30:22;56.48;44.95;69.36;;
49215;Laerm;45943;53.148;8.204;2023-07-31T10:32:51;54.41;45.22;69.65;;
49215;Laerm;45943;53.148;8.204;2023-07-31T10:35:18;53.46;45.07;68.44;;
49215;Laerm;45943;53.148;8.204;2023-07-31T10:37:44;54.01;44.50;69.99;;
49215;Laerm;45943;53.148;8.204;2023-07-31T10:40:13;59.55;44.09;76.82;;
49215;Laerm;45943;53.148;8.204;2023-07-31T10:42:51;51.62;44.67;67.67;;
49215;Laerm;45943;53.148;8.204;2023-07-31T10:45:30;55.54;45.50;70.19;;
49215;Laerm;45943;53.148;8.204;2023-07-31T10:48:00;56.93;45.64;69.12;;
49215;Laerm;45943;53.148;8.204;2023-07-31T10:50:27;52.09;44.14;66.01;;
49215;Laerm;45943;53.148;8.204;2023-07-31T10:52:55;60.45;43.79;80.39;;
49215;Laerm;45943;53.148;8.204;2023-07-31T10:57:50;54.20;43.79;67.52;;
49215;Laerm;45943;53.148;8.204;2023-07-31T11:00:28;53.99;44.61;67.35;;
49215;Laerm;45943;53.148;8.204;2023-07-31T11:03:12;53.17;44.32;68.13;;
49215;Laerm;45943;53.148;8.204;2023-07-31T11:10:37;53.63;43.74;71.20;;
49215;Laerm;45943;53.148;8.204;2023-07-31T11:13:06;53.11;43.69;70.18;;
49215;Laerm;45943;53.148;8.204;2023-07-31T11:15:32;54.65;44.23;69.12;;
49215;Laerm;45943;53.148;8.204;2023-07-31T11:18:06;56.14;44.28;70.23;;
49215;Laerm;45943;53.148;8.204;2023-07-31T11:20:36;54.54;44.59;67.61;;
49215;Laerm;45943;53.148;8.204;2023-07-31T11:23:05;59.72;44.06;73.23;;
49215;Laerm;45943;53.148;8.204;2023-07-31T11:25:32;53.21;43.79;70.99;;
49215;Laerm;45943;53.148;8.204;2023-07-31T11:28:06;53.80;44.14;71.81;;
49215;Laerm;45943;53.148;8.204;2023-07-31T11:30:33;57.29;45.11;71.87;;
49215;Laerm;45943;53.148;8.204;2023-07-31T11:33:01;59.35;47.22;71.88;;
49215;Laerm;45943;53.148;8.204;2023-07-31T11:35:30;55.34;45.87;74.03;;
49215;Laerm;45943;53.148;8.204;2023-07-31T11:37:56;58.31;45.87;74.17;;
49215;Laerm;45943;53.148;8.204;2023-07-31T11:40:22;59.08;46.40;72.37;;
49215;Laerm;45943;53.148;8.204;2023-07-31T11:42:56;56.97;44.71;74.64;;
49215;Laerm;45943;53.148;8.204;2023-07-31T11:45:24;56.84;44.37;73.69;;
49215;Laerm;45943;53.148;8.204;2023-07-31T11:47:51;55.51;44.83;71.66;;
49215;Laerm;45943;53.148;8.204;2023-07-31T11:50:17;54.05;45.36;66.42;;
49215;Laerm;45943;53.148;8.204;2023-07-31T11:52:46;55.46;44.28;71.89;;
49215;Laerm;45943;53.148;8.204;2023-07-31T11:55:15;57.42;47.67;69.08;;
49215;Laerm;45943;53.148;8.204;2023-07-31T11:57:43;56.78;51.01;68.45;;
49215;Laerm;45943;53.148;8.204;2023-07-31T12:00:11;57.80;50.22;68.30;;
49215;Laerm;45943;53.148;8.204;2023-07-31T12:02:39;62.88;52.03;84.06;;
49215;Laerm;45943;53.148;8.204;2023-07-31T12:05:12;60.50;57.36;69.40;;
49215;Laerm;45943;53.148;8.204;2023-07-31T12:07:54;61.13;57.09;74.11;;
49215;Laerm;45943;53.148;8.204;2023-07-31T12:10:28;57.66;47.57;69.95;;
49215;Laerm;45943;53.148;8.204;2023-07-31T12:12:58;53.68;45.93;65.68;;
49215;Laerm;45943;53.148;8.204;2023-07-31T12:15:41;59.26;46.90;80.43;;
49215;Laerm;45943;53.148;8.204;2023-07-31T12:18:19;57.07;46.98;70.98;;
49215;Laerm;45943;53.148;8.204;2023-07-31T12:20:48;57.34;47.62;73.28;;
49215;Laerm;45943;53.148;8.204;2023-07-31T12:23:22;53.03;47.72;67.85;;
49215;Laerm;45943;53.148;8.204;2023-07-31T12:26:15;59.38;44.45;82.73;;
49215;Laerm;45943;53.148;8.204;2023-07-31T12:28:49;55.39;44.87;67.93;;
49215;Laerm;45943;53.148;8.204;2023-07-31T12:31:21;53.22;44.79;68.16;;
49215;Laerm;45943;53.148;8.204;2023-07-31T12:33:49;57.67;44.71;70.82;;
49215;Laerm;45943;53.148;8.204;2023-07-31T12:36:23;55.55;44.46;70.56;;
49215;Laerm;45943;53.148;8.204;2023-07-31T12:38:50;58.77;45.22;72.05;;
49215;Laerm;45943;53.148;8.204;2023-07-31T12:41:16;55.45;43.94;70.53;;
49215;Laerm;45943;53.148;8.204;2023-07-31T12:43:44;56.14;43.74;74.14;;
49215;Laerm;45943;53.148;8.204;2023-07-31T12:46:10;56.65;44.23;75.26;;
49215;Laerm;45943;53.148;8.204;2023-07-31T12:48:37;58.60;44.95;72.36;;
49215;Laerm;45943;53.148;8.204;2023-07-31T12:51:04;56.21;45.74;70.38;;
49215;Laerm;45943;53.148;8.204;2023-07-31T12:53:30;54.89;44.15;68.86;;
49215;Laerm;45943;53.148;8.204;2023-07-31T12:55:56;55.99;44.32;70.84;;
49215;Laerm;45943;53.148;8.204;2023-07-31T12:58:22;54.85;44.67;68.32;;
49215;Laerm;45943;53.148;8.204;2023-07-31T13:00:48;55.34;44.41;67.78;;
49215;Laerm;45943;53.148;8.204;2023-07-31T13:03:15;55.36;45.39;67.88;;
49215;Laerm;45943;53.148;8.204;2023-07-31T13:05:41;52.32;44.71;67.22;;
49215;Laerm;45943;53.148;8.204;2023-07-31T13:08:07;55.15;44.32;71.54;;
49215;Laerm;45943;53.148;8.204;2023-07-31T13:10:33;54.89;44.23;71.70;;
49215;Laerm;45943;53.148;8.204;2023-07-31T13:12:59;52.76;44.37;67.36;;
49215;Laerm;45943;53.148;8.204;2023-07-31T13:15:25;58.08;45.22;68.38;;
49215;Laerm;45943;53.148;8.204;2023-07-31T13:17:51;57.20;46.14;69.93;;
49215;Laerm;45943;53.148;8.204;2023-07-31T13:20:17;57.04;44.91;72.00;;
49215;Laerm;45943;53.148;8.204;2023-07-31T13:22:43;57.17;44.83;71.54;;
49215;Laerm;45943;53.148;8.204;2023-07-31T13:25:09;56.27;45.11;71.67;;
49215;Laerm;45943;53.148;8.204;2023-07-31T13:27:35;58.10;47.55;71.17;;
49215;Laerm;45943;53.148;8.204;2023-07-31T13:30:01;54.29;46.23;69.51;;
49215;Laerm;45943;53.148;8.204;2023-07-31T13:32:27;58.06;45.74;69.88;;
49215;Laerm;45943;53.148;8.204;2023-07-31T13:34:53;54.14;46.95;72.39;;
49215;Laerm;45943;53.148;8.204;2023-07-31T13:37:19;58.97;47.00;74.34;;
49215;Laerm;45943;53.148;8.204;2023-07-31T13:39:45;61.21;47.03;78.13;;
49215;Laerm;45943;53.148;8.204;2023-07-31T13:42:11;58.96;46.67;72.12;;
49215;Laerm;45943;53.148;8.204;2023-07-31T13:44:39;62.96;52.40;84.04;;
49215;Laerm;45943;53.148;8.204;2023-07-31T13:47:05;60.08;49.27;75.75;;
49215;Laerm;45943;53.148;8.204;2023-07-31T13:49:32;59.97;49.71;73.40;;
49215;Laerm;45943;53.148;8.204;2023-07-31T13:51:58;59.87;51.54;76.31;;
49215;Laerm;45943;53.148;8.204;2023-07-31T13:54:24;57.65;49.96;73.03;;
49215;Laerm;45943;53.148;8.204;2023-07-31T13:56:52;60.49;49.54;74.68;;
49215;Laerm;45943;53.148;8.204;2023-07-31T13:59:18;60.24;49.11;73.38;;
49215;Laerm;45943;53.148;8.204;2023-07-31T14:01:44;65.94;56.35;76.40;;